Time;durP1;ratioP1;P1;durP2;ratioP2;P2;SDS_P1;SDS_P2;PMS_P1;PMS_P2;Temp;Humidity;BMP_temperature;BMP_pressure;BME280_temperature;BME280_humidity;BME280_pressure;Samples;Min_cycle;Max_cycle;Signal;HPM_P1;HPM_P2
2024/02/27 00:01:08;;;;;;;768.60;730.13;;;6.20;99.90;;;;;;4998263;28;20457;-69
2024/02/27 00:03:41;;;;;;;766.40;726.93;;;6.20;99.90;;;;;;5006483;28;20469;-69
2024/02/27 00:06:07;;;;;;;778.23;738.60;;;6.20;99.90;;;;;;4997993;28;20976;-68
2024/02/27 00:08:35;;;;;;;755.60;718.43;;;6.20;99.90;;;;;;4995329;28;20445;-69
2024/02/27 00:11:03;;;;;;;771.53;732.77;;;6.20;99.90;;;;;;5001925;28;20459;-69
2024/02/27 00:13:29;;;;;;;780.97;740.53;;;6.20;99.90;;;;;;5013578;28;20478;-68
2024/02/27 00:15:59;;;;;;;757.30;719.40;;;6.20;99.90;;;;;;4999384;28;20457;-69
2024/02/27 00:18:27;;;;;;;766.67;728.30;;;6.20;99.90;;;;;;4994679;28;20565;-69
2024/02/27 00:20:54;;;;;;;772.67;732.13;;;6.20;99.90;;;;;;4994696;28;20457;-69
2024/02/27 00:23:21;;;;;;;742.67;707.00;;;6.20;99.90;;;;;;4993953;28;20480;-69
2024/02/27 00:25:48;;;;;;;784.07;743.47;;;6.10;99.90;;;;;;4994835;28;20460;-69
2024/02/27 00:28:14;;;;;;;799.77;756.87;;;6.10;99.90;;;;;;5010383;28;20456;-69
2024/02/27 00:30:41;;;;;;;767.83;728.97;;;6.10;99.90;;;;;;5007367;28;20460;-69
2024/02/27 00:33:08;;;;;;;786.57;744.97;;;6.10;99.90;;;;;;5013400;28;20479;-68
2024/02/27 00:35:36;;;;;;;800.63;757.23;;;6.10;99.90;;;;;;5009891;28;20462;-69
2024/02/27 00:38:03;;;;;;;783.60;743.73;;;6.10;99.90;;;;;;5010132;28;20457;-69
2024/02/27 00:40:30;;;;;;;816.40;771.90;;;6.10;99.90;;;;;;5002363;28;20488;-69
2024/02/27 00:42:57;;;;;;;768.93;729.90;;;6.10;99.90;;;;;;4993865;28;20480;-69
2024/02/27 00:45:24;;;;;;;791.57;748.37;;;6.10;99.90;;;;;;4995701;28;20464;-69
2024/02/27 00:47:50;;;;;;;803.37;759.57;;;6.10;99.90;;;;;;5013780;28;20850;-69
2024/02/27 00:50:17;;;;;;;761.23;721.77;;;6.10;99.90;;;;;;5013472;28;20452;-69
2024/02/27 00:52:45;;;;;;;789.27;747.07;;;6.10;99.90;;;;;;5013287;28;20483;-69
2024/02/27 00:55:12;;;;;;;749.67;711.77;;;6.10;99.90;;;;;;4995923;28;20860;-69
2024/02/27 00:57:39;;;;;;;781.10;740.47;;;6.10;99.90;;;;;;5006638;28;20464;-69
2024/02/27 01:00:11;;;;;;;793.63;751.47;;;6.10;99.90;;;;;;5014049;28;20485;-69
2024/02/27 01:02:39;;;;;;;795.70;753.33;;;6.10;99.90;;;;;;5006625;28;20482;-67
2024/02/27 01:05:07;;;;;;;790.03;747.37;;;6.10;99.90;;;;;;5012935;28;20448;-67
2024/02/27 01:07:34;;;;;;;780.07;739.50;;;6.00;99.90;;;;;;5005393;28;20536;-67
2024/02/27 01:10:06;;;;;;;792.53;750.07;;;6.00;99.90;;;;;;5012847;28;20451;-68
2024/02/27 01:12:32;;;;;;;805.57;761.83;;;6.00;99.90;;;;;;5013254;28;20479;-67
2024/02/27 01:14:59;;;;;;;798.97;755.47;;;6.00;99.90;;;;;;5013042;28;20453;-67
2024/02/27 01:17:26;;;;;;;789.60;747.50;;;6.10;99.90;;;;;;5004909;28;20460;-68
2024/02/27 01:19:53;;;;;;;779.60;739.80;;;6.00;99.90;;;;;;5012914;28;20481;-67
2024/02/27 01:22:27;;;;;;;784.60;743.13;;;6.00;99.90;;;;;;5011462;28;20453;-67
2024/02/27 01:24:54;;;;;;;797.63;753.77;;;6.00;99.90;;;;;;5012606;28;20890;-67
2024/02/27 01:27:22;;;;;;;764.37;725.27;;;6.10;99.90;;;;;;5012813;28;20467;-67
2024/02/27 01:29:49;;;;;;;791.73;748.97;;;6.00;99.90;;;;;;5013094;28;20453;-67
2024/02/27 01:32:16;;;;;;;800.67;756.83;;;6.00;99.90;;;;;;4996676;28;20457;-67
2024/02/27 01:34:42;;;;;;;795.10;751.30;;;6.10;99.90;;;;;;5020879;28;20457;-67
2024/02/27 01:37:09;;;;;;;798.60;755.67;;;6.00;99.90;;;;;;5015019;28;20476;-67
2024/02/27 01:39:36;;;;;;;815.57;769.30;;;6.00;99.90;;;;;;5012736;28;20484;-67
2024/02/27 01:42:03;;;;;;;790.13;747.63;;;6.00;99.90;;;;;;5012802;28;20453;-67
2024/02/27 01:44:31;;;;;;;811.57;766.73;;;6.00;99.90;;;;;;5012269;28;20456;-67
2024/02/27 01:47:00;;;;;;;790.43;747.93;;;6.00;99.90;;;;;;5012452;28;20547;-67
2024/02/27 01:49:28;;;;;;;788.63;747.23;;;6.00;99.90;;;;;;4993212;28;20953;-67
2024/02/27 01:51:56;;;;;;;788.10;744.90;;;6.00;99.90;;;;;;4999534;28;20453;-67
2024/02/27 01:54:26;;;;;;;810.43;765.87;;;6.00;99.90;;;;;;5012089;28;20473;-67
2024/02/27 01:56:56;;;;;;;812.17;767.17;;;6.00;99.90;;;;;;5012392;28;20464;-67
2024/02/27 01:59:23;;;;;;;812.67;767.97;;;6.00;99.90;;;;;;5002090;28;20940;-67
2024/02/27 02:01:52;;;;;;;818.50;771.77;;;6.00;99.90;;;;;;4992735;28;20458;-67
2024/02/27 02:04:19;;;;;;;806.20;761.83;;;6.00;99.90;;;;;;5001991;28;20477;-67
2024/02/27 02:06:47;;;;;;;820.27;774.47;;;6.10;99.90;;;;;;5012414;28;20457;-67
2024/02/27 02:09:14;;;;;;;814.97;769.37;;;6.00;99.90;;;;;;5003196;28;20984;-67
2024/02/27 02:11:42;;;;;;;800.20;756.80;;;6.00;99.90;;;;;;4992678;28;20454;-67
2024/02/27 02:14:08;;;;;;;766.07;727.90;;;5.90;99.90;;;;;;5008415;28;21003;-67
2024/02/27 02:16:35;;;;;;;793.90;751.30;;;5.90;99.90;;;;;;5012178;28;20854;-67
2024/02/27 02:19:03;;;;;;;833.57;785.77;;;5.90;99.90;;;;;;5012175;28;20820;-67
2024/02/27 02:21:33;;;;;;;825.67;778.07;;;5.90;99.90;;;;;;4997224;28;20452;-67
2024/02/27 02:24:02;;;;;;;821.73;775.37;;;5.90;99.90;;;;;;5018337;28;20870;-68
2024/02/27 02:26:31;;;;;;;783.83;742.37;;;5.90;99.90;;;;;;5018771;28;20461;-67
2024/02/27 02:28:58;;;;;;;801.33;757.53;;;6.00;99.90;;;;;;5011866;28;20476;-67
2024/02/27 02:31:25;;;;;;;812.27;767.37;;;5.90;99.90;;;;;;5001481;28;20551;-67
2024/02/27 02:33:52;;;;;;;806.03;761.47;;;5.90;99.90;;;;;;5012346;28;20474;-67
2024/02/27 02:36:19;;;;;;;808.87;764.47;;;5.90;99.90;;;;;;4999170;28;20924;-67
2024/02/27 02:38:47;;;;;;;813.77;769.10;;;5.80;99.90;;;;;;5004071;28;20846;-67
2024/02/27 02:41:13;;;;;;;803.73;759.83;;;5.80;99.90;;;;;;5018550;28;20488;-67
2024/02/27 02:43:40;;;;;;;812.63;767.63;;;5.80;99.90;;;;;;5017823;28;20476;-67
2024/02/27 02:46:07;;;;;;;819.67;773.67;;;5.80;99.90;;;;;;5018790;28;20453;-67
2024/02/27 02:48:36;;;;;;;828.10;780.97;;;5.80;99.90;;;;;;5018738;28;20834;-67
2024/02/27 02:51:02;;;;;;;829.33;782.23;;;5.80;99.90;;;;;;5003052;28;20462;-67
2024/02/27 02:53:29;;;;;;;827.03;779.97;;;5.80;99.90;;;;;;4998409;28;20479;-67
2024/02/27 02:55:57;;;;;;;804.33;759.60;;;5.80;99.90;;;;;;4998691;28;20484;-67
2024/02/27 02:58:24;;;;;;;799.67;756.60;;;5.80;99.90;;;;;;5017053;28;20461;-67
2024/02/27 03:00:51;;;;;;;801.50;757.70;;;5.80;99.90;;;;;;5018366;28;20487;-67
2024/02/27 03:03:18;;;;;;;816.07;770.70;;;5.90;99.90;;;;;;5018097;28;20473;-67
2024/02/27 03:05:44;;;;;;;808.73;765.03;;;5.90;99.90;;;;;;5018429;28;20460;-67
2024/02/27 03:08:11;;;;;;;762.73;723.63;;;5.80;99.90;;;;;;5018486;28;20831;-67
2024/02/27 03:10:39;;;;;;;760.03;720.30;;;5.80;99.90;;;;;;5018297;28;20528;-67
2024/02/27 03:13:09;;;;;;;783.27;740.37;;;5.80;99.90;;;;;;5018330;28;20479;-67
2024/02/27 03:15:35;;;;;;;787.83;744.80;;;5.80;99.90;;;;;;5010980;28;20491;-68
2024/02/27 03:18:02;;;;;;;779.50;738.10;;;6.00;99.90;;;;;;5018351;28;20519;-67
2024/02/27 03:20:29;;;;;;;775.70;733.40;;;5.80;99.90;;;;;;5015190;28;20481;-70
2024/02/27 03:22:56;;;;;;;782.33;740.53;;;5.90;99.90;;;;;;4999135;28;20488;-68
2024/02/27 03:25:22;;;;;;;763.83;723.97;;;5.80;99.90;;;;;;4998624;28;20457;-68
2024/02/27 03:27:49;;;;;;;773.27;731.77;;;5.90;99.90;;;;;;4999048;28;20453;-68
2024/02/27 03:30:18;;;;;;;754.77;716.23;;;5.80;99.90;;;;;;4998631;28;20461;-68
2024/02/27 03:32:45;;;;;;;758.47;720.10;;;5.80;99.90;;;;;;5002892;28;20508;-67
2024/02/27 03:35:12;;;;;;;742.57;705.47;;;5.80;99.90;;;;;;5012957;28;20540;-68
2024/02/27 03:37:39;;;;;;;738.30;700.87;;;5.80;99.90;;;;;;5007657;28;20461;-67
2024/02/27 03:40:07;;;;;;;730.67;694.33;;;5.80;99.90;;;;;;5006855;28;20490;-68
2024/02/27 03:42:34;;;;;;;712.27;678.37;;;5.80;99.90;;;;;;4998861;28;20501;-68
2024/02/27 03:45:01;;;;;;;738.47;702.07;;;5.70;99.90;;;;;;5014428;28;20460;-68
2024/02/27 03:47:29;;;;;;;730.13;695.57;;;5.70;99.90;;;;;;5014671;28;20462;-68
2024/02/27 03:49:56;;;;;;;739.77;703.77;;;5.70;99.90;;;;;;5015440;28;20464;-68
2024/02/27 03:52:23;;;;;;;752.90;714.73;;;5.60;99.90;;;;;;4996159;28;20482;-68
2024/02/27 03:54:50;;;;;;;715.73;682.37;;;5.60;99.90;;;;;;5009032;28;20453;-68
2024/02/27 03:57:17;;;;;;;736.40;700.60;;;5.70;99.90;;;;;;5015011;28;20457;-68
2024/02/27 03:59:44;;;;;;;759.47;721.07;;;5.70;99.90;;;;;;5014641;28;20492;-68
2024/02/27 04:02:10;;;;;;;740.83;702.63;;;5.60;99.90;;;;;;4997778;28;20469;-68
2024/02/27 04:04:38;;;;;;;719.17;685.23;;;5.60;99.90;;;;;;4994281;28;20980;-68
2024/02/27 04:07:05;;;;;;;749.47;711.30;;;5.60;99.90;;;;;;4994742;28;20454;-68
2024/02/27 04:09:32;;;;;;;747.20;708.87;;;5.60;99.90;;;;;;4995096;28;20454;-68
2024/02/27 04:11:59;;;;;;;771.57;729.87;;;5.60;99.90;;;;;;4994891;28;20454;-68
2024/02/27 04:14:26;;;;;;;759.37;719.57;;;5.60;99.90;;;;;;4994330;28;20484;-68
2024/02/27 04:16:52;;;;;;;743.87;705.77;;;5.60;99.90;;;;;;4994697;28;20458;-68
2024/02/27 04:19:19;;;;;;;748.60;710.13;;;5.60;99.90;;;;;;4997102;28;20462;-68
2024/02/27 04:21:47;;;;;;;723.80;688.30;;;5.60;99.90;;;;;;5009134;28;20490;-68
2024/02/27 04:24:14;;;;;;;737.23;700.27;;;5.60;99.90;;;;;;5011588;28;20477;-68
2024/02/27 04:26:41;;;;;;;762.17;722.97;;;5.50;99.90;;;;;;5001915;28;20454;-68
2024/02/27 04:29:08;;;;;;;762.37;722.73;;;5.50;99.90;;;;;;4994601;28;20450;-67
2024/02/27 04:31:35;;;;;;;775.23;734.43;;;5.60;99.90;;;;;;4994493;28;20457;-68
2024/02/27 04:34:01;;;;;;;778.27;737.23;;;5.40;99.90;;;;;;5009194;28;20477;-68
2024/02/27 04:36:28;;;;;;;795.27;751.23;;;5.40;99.90;;;;;;5013948;28;20461;-68
2024/02/27 04:38:56;;;;;;;813.13;768.23;;;5.30;99.90;;;;;;4999393;28;20848;-68
2024/02/27 04:41:23;;;;;;;813.23;767.77;;;5.30;99.90;;;;;;5012245;28;21008;-68
2024/02/27 04:43:50;;;;;;;832.93;785.17;;;5.30;99.90;;;;;;5013301;28;20481;-68
2024/02/27 04:46:17;;;;;;;822.83;775.73;;;5.30;99.90;;;;;;5005223;28;20464;-68
2024/02/27 04:48:44;;;;;;;829.20;781.63;;;5.30;99.90;;;;;;5013604;28;20835;-68
2024/02/27 04:51:10;;;;;;;846.70;796.03;;;5.30;99.90;;;;;;5005173;28;20480;-68
2024/02/27 04:53:38;;;;;;;848.00;797.87;;;5.40;99.90;;;;;;4994054;28;20489;-68
2024/02/27 04:56:07;;;;;;;835.43;787.10;;;5.30;99.90;;;;;;4994187;28;20493;-68
2024/02/27 04:58:36;;;;;;;815.77;770.17;;;5.30;99.90;;;;;;4993926;28;20462;-68
2024/02/27 05:01:03;;;;;;;825.07;778.57;;;5.30;99.90;;;;;;5001103;28;20481;-69
2024/02/27 05:03:29;;;;;;;821.30;774.43;;;5.30;99.90;;;;;;5012897;28;20473;-68
2024/02/27 05:05:56;;;;;;;836.93;788.43;;;5.30;99.90;;;;;;5013629;28;20445;-69
2024/02/27 05:08:23;;;;;;;838.30;789.53;;;5.20;99.90;;;;;;5013435;28;20456;-69
2024/02/27 05:10:50;;;;;;;814.77;768.57;;;5.20;99.90;;;;;;4999334;28;20460;-69
2024/02/27 05:13:18;;;;;;;813.77;766.67;;;5.20;99.90;;;;;;4992919;28;20955;-69
2024/02/27 05:15:45;;;;;;;818.90;772.20;;;5.20;99.90;;;;;;5006583;28;20460;-69
2024/02/27 05:18:11;;;;;;;828.43;780.13;;;5.20;99.90;;;;;;4997133;28;20492;-68
2024/02/27 05:20:39;;;;;;;839.40;790.33;;;5.20;99.90;;;;;;5013125;28;20492;-69
2024/02/27 05:23:06;;;;;;;840.97;790.97;;;5.20;99.90;;;;;;5004979;28;20565;-68
2024/02/27 05:25:33;;;;;;;832.27;783.00;;;5.20;99.90;;;;;;5004596;28;20453;-69
2024/02/27 05:27:59;;;;;;;835.87;786.47;;;5.20;99.90;;;;;;5013084;28;20484;-69
2024/02/27 05:30:28;;;;;;;842.43;791.07;;;5.20;99.90;;;;;;5009534;28;20457;-69
2024/02/27 05:32:55;;;;;;;841.37;791.40;;;5.20;99.90;;;;;;4993393;28;20845;-69
2024/02/27 05:35:22;;;;;;;850.13;799.27;;;5.20;99.90;;;;;;4992911;28;20496;-69
2024/02/27 05:37:49;;;;;;;843.00;792.20;;;5.10;99.90;;;;;;5006907;28;20457;-69
2024/02/27 05:40:16;;;;;;;844.67;794.00;;;5.20;99.90;;;;;;5012427;28;20480;-69
2024/02/27 05:42:43;;;;;;;851.87;799.90;;;5.20;99.90;;;;;;5012330;28;20472;-69
2024/02/27 05:45:11;;;;;;;855.30;804.00;;;5.10;99.90;;;;;;5012067;28;20472;-69
2024/02/27 05:47:39;;;;;;;856.43;805.43;;;5.10;99.90;;;;;;5005087;28;20535;-69
2024/02/27 05:50:07;;;;;;;858.00;805.90;;;5.10;99.90;;;;;;5004322;28;20461;-68
2024/02/27 05:52:34;;;;;;;842.47;792.20;;;5.10;99.90;;;;;;5004718;28;20477;-68
2024/02/27 05:55:01;;;;;;;848.20;797.40;;;5.20;99.90;;;;;;5012230;28;20460;-69
2024/02/27 05:57:27;;;;;;;847.97;797.47;;;5.10;99.90;;;;;;5000566;28;20457;-68
2024/02/27 05:59:54;;;;;;;846.13;795.77;;;5.10;99.90;;;;;;4992635;28;20864;-69
2024/02/27 06:02:21;;;;;;;867.27;813.07;;;5.10;99.90;;;;;;5002270;28;20490;-69
2024/02/27 06:04:49;;;;;;;842.77;792.57;;;5.20;99.90;;;;;;5012048;28;20942;-69
2024/02/27 06:07:16;;;;;;;876.43;822.07;;;5.20;99.90;;;;;;5011178;28;20552;-69
2024/02/27 06:09:43;;;;;;;874.80;821.30;;;5.10;99.90;;;;;;4997227;28;20459;-69
2024/02/27 06:12:10;;;;;;;885.83;829.37;;;5.20;99.90;;;;;;5011689;28;20465;-69
2024/02/27 06:14:52;;;;;;;890.00;833.43;;;5.20;99.90;;;;;;5007946;28;20557;-68
2024/02/27 06:17:19;;;;;;;881.97;827.60;;;5.20;99.90;;;;;;4992573;28;20516;-69
2024/02/27 06:19:49;;;;;;;884.40;829.70;;;5.20;99.90;;;;;;4992207;28;20468;-69
2024/02/27 06:22:19;;;;;;;873.40;821.00;;;5.20;99.90;;;;;;4992069;28;21076;-69
2024/02/27 06:24:46;;;;;;;856.03;804.67;;;5.20;99.90;;;;;;4997262;28;20465;-69
2024/02/27 06:27:12;;;;;;;853.13;802.70;;;5.10;99.90;;;;;;5011154;28;20476;-69
2024/02/27 06:29:39;;;;;;;851.03;800.97;;;5.20;99.90;;;;;;5003274;28;20461;-68
2024/02/27 06:32:09;;;;;;;855.97;804.83;;;5.20;99.90;;;;;;5010418;28;20453;-68
2024/02/27 06:34:36;;;;;;;853.67;803.90;;;5.30;99.90;;;;;;5010705;28;20484;-69
2024/02/27 06:37:04;;;;;;;861.90;810.60;;;5.10;99.90;;;;;;4995630;28;20454;-68
2024/02/27 06:39:32;;;;;;;864.20;813.40;;;5.10;99.90;;;;;;4991890;28;20833;-68
2024/02/27 06:41:59;;;;;;;854.13;803.13;;;5.10;99.90;;;;;;5007345;28;20484;-69
2024/02/27 06:44:26;;;;;;;875.03;821.27;;;5.10;99.90;;;;;;5003346;28;20481;-69
2024/02/27 06:46:53;;;;;;;869.00;816.30;;;5.10;99.90;;;;;;5011040;28;20503;-69
2024/02/27 06:49:20;;;;;;;879.70;826.57;;;5.10;99.90;;;;;;5001569;28;20493;-69
2024/02/27 06:51:47;;;;;;;880.13;826.70;;;5.10;99.90;;;;;;4991798;28;20461;-69
2024/02/27 06:54:14;;;;;;;865.80;814.43;;;5.10;99.90;;;;;;4992176;28;20485;-69
2024/02/27 06:56:42;;;;;;;867.63;815.93;;;5.20;99.90;;;;;;4997005;28;20459;-69
2024/02/27 06:59:09;;;;;;;865.17;813.13;;;5.20;99.90;;;;;;5003612;28;20470;-69
2024/02/27 07:01:35;;;;;;;860.07;808.70;;;5.30;99.90;;;;;;5011672;28;20544;-69
2024/02/27 07:04:02;;;;;;;849.27;797.77;;;5.30;99.90;;;;;;5011184;28;20477;-69
2024/02/27 07:06:29;;;;;;;845.23;793.97;;;5.30;99.90;;;;;;4992749;28;20472;-69
2024/02/27 07:08:58;;;;;;;835.63;785.50;;;5.40;99.90;;;;;;4994202;28;20942;-69
2024/02/27 07:11:25;;;;;;;839.53;788.87;;;5.40;99.90;;;;;;5014332;28;20449;-69
2024/02/27 07:13:53;;;;;;;838.70;789.70;;;5.40;99.90;;;;;;5014681;28;20501;-69
2024/02/27 07:16:20;;;;;;;822.60;774.50;;;5.50;99.90;;;;;;5014782;28;20457;-69
2024/02/27 07:18:48;;;;;;;812.30;765.83;;;5.50;99.90;;;;;;5015214;28;20461;-71
2024/02/27 07:21:15;;;;;;;836.57;787.13;;;5.60;99.90;;;;;;5016199;28;20490;-69
2024/02/27 07:23:41;;;;;;;827.80;780.23;;;5.60;99.90;;;;;;5016976;28;20856;-70
2024/02/27 07:26:08;;;;;;;836.17;788.00;;;5.60;99.90;;;;;;5016228;28;20453;-69
2024/02/27 07:28:35;;;;;;;820.80;773.60;;;5.60;99.90;;;;;;5016267;28;20453;-69
2024/02/27 07:31:05;;;;;;;791.03;748.30;;;5.70;99.90;;;;;;5015248;28;20460;-69
2024/02/27 07:33:31;;;;;;;793.93;751.30;;;5.70;99.90;;;;;;5014439;28;20485;-69
2024/02/27 07:35:58;;;;;;;801.17;757.60;;;5.70;99.90;;;;;;5015192;28;20455;-69
2024/02/27 07:38:25;;;;;;;800.40;756.33;;;5.70;99.90;;;;;;4995736;28;20965;-69
2024/02/27 07:40:52;;;;;;;788.97;747.07;;;5.80;99.90;;;;;;4999629;28;20861;-69
2024/02/27 07:43:18;;;;;;;777.87;735.97;;;5.80;99.90;;;;;;5003125;28;20862;-69
2024/02/27 07:45:51;;;;;;;784.13;743.03;;;5.80;99.90;;;;;;4998944;28;20457;-69
2024/02/27 07:48:20;;;;;;;757.63;718.53;;;6.00;99.90;;;;;;5014122;28;20464;-69
2024/02/27 07:50:48;;;;;;;752.10;713.40;;;6.00;99.90;;;;;;5000645;28;20458;-69
2024/02/27 07:53:14;;;;;;;750.23;712.00;;;6.10;99.90;;;;;;5009294;28;20469;-69
2024/02/27 07:55:42;;;;;;;738.07;700.57;;;6.20;99.90;;;;;;4994260;28;20968;-69
2024/02/27 07:58:09;;;;;;;725.07;688.70;;;6.30;99.90;;;;;;5010166;28;20862;-69
2024/02/27 08:00:36;;;;;;;722.50;686.47;;;6.30;99.90;;;;;;4994447;28;20450;-69
2024/02/27 08:03:04;;;;;;;699.33;666.37;;;6.30;99.90;;;;;;5009872;28;20502;-69
2024/02/27 08:05:32;;;;;;;652.47;621.37;;;6.30;99.90;;;;;;5013450;28;20456;-69
2024/02/27 08:07:59;;;;;;;614.73;586.87;;;6.30;99.90;;;;;;5005901;28;20463;-69
2024/02/27 08:10:26;;;;;;;597.40;571.60;;;6.30;99.90;;;;;;5013695;28;20461;-69
2024/02/27 08:12:53;;;;;;;568.43;543.20;;;6.30;99.90;;;;;;5008405;28;20474;-69
2024/02/27 08:15:20;;;;;;;558.37;533.17;;;6.40;99.90;;;;;;4994451;28;20489;-70
2024/02/27 08:17:47;;;;;;;571.90;547.40;;;6.50;99.90;;;;;;5008243;28;20464;-73
2024/02/27 08:20:13;;;;;;;313.75;300.63;;;6.40;99.90;;;;;;5012333;28;20466;-69
2024/02/27 08:22:42;;;;;;;409.70;391.90;;;6.40;99.90;;;;;;5014034;28;20605;-70
2024/02/27 08:25:09;;;;;;;384.80;369.20;;;6.50;99.90;;;;;;5013540;28;20888;-69
2024/02/27 08:27:36;;;;;;;422.63;406.20;;;6.50;99.90;;;;;;5013680;28;20457;-69
2024/02/27 08:30:04;;;;;;;329.27;315.33;;;6.80;99.90;;;;;;5014051;28;20457;-70
2024/02/27 08:32:31;;;;;;;353.67;338.83;;;6.70;99.90;;;;;;5013836;28;20501;-69
2024/02/27 08:34:58;;;;;;;382.77;367.37;;;6.70;99.90;;;;;;5013658;28;20460;-70
2024/02/27 08:37:25;;;;;;;330.67;317.27;;;6.80;99.90;;;;;;5005488;28;20518;-69
2024/02/27 08:39:53;;;;;;;346.97;333.17;;;6.90;99.90;;;;;;5013492;28;20899;-70
2024/02/27 08:42:20;;;;;;;359.23;344.17;;;6.80;99.90;;;;;;5005495;28;20490;-69
2024/02/27 08:44:47;;;;;;;291.10;279.00;;;7.00;99.90;;;;;;5013261;28;20960;-69
2024/02/27 08:47:14;;;;;;;315.13;301.20;;;6.90;99.90;;;;;;5014080;28;20453;-70
2024/02/27 08:49:41;;;;;;;240.20;228.10;;;7.10;99.90;;;;;;5013833;28;20551;-70
2024/02/27 08:52:08;;;;;;;291.67;280.03;;;7.10;99.90;;;;;;5013482;28;20465;-70
2024/02/27 08:54:35;;;;;;;291.57;280.23;;;7.20;99.90;;;;;;5003705;28;20452;-70
2024/02/27 08:57:04;;;;;;;184.53;175.20;;;7.30;99.90;;;;;;5013436;28;20932;-69
2024/02/27 08:59:31;;;;;;;205.20;196.17;;;7.30;99.90;;;;;;5010198;28;20893;-69
2024/02/27 09:01:57;;;;;;;116.37;108.60;;;7.30;99.90;;;;;;4993696;28;21013;-70
2024/02/27 09:04:24;;;;;;;78.77;72.47;;;7.40;99.90;;;;;;4993594;28;20481;-69
2024/02/27 09:06:51;;;;;;;78.87;72.43;;;7.30;99.90;;;;;;5007433;28;20457;-69
2024/02/27 09:09:18;;;;;;;72.17;66.63;;;7.30;99.90;;;;;;5012977;28;20457;-69
2024/02/27 09:11:47;;;;;;;61.17;55.17;;;7.20;99.90;;;;;;5013347;28;20449;-70
2024/02/27 09:14:15;;;;;;;58.27;53.07;;;7.20;99.90;;;;;;4995840;28;20481;-69
2024/02/27 09:16:42;;;;;;;54.00;48.30;;;7.20;99.90;;;;;;4998002;28;20461;-70
2024/02/27 09:19:09;;;;;;;57.33;51.53;;;7.30;99.90;;;;;;5013071;28;20449;-69
2024/02/27 09:21:35;;;;;;;62.07;55.53;;;7.50;99.90;;;;;;5009169;28;20485;-70
2024/02/27 09:24:02;;;;;;;69.70;63.53;;;7.70;99.90;;;;;;4993060;28;20478;-70
2024/02/27 09:26:29;;;;;;;66.93;60.33;;;8.00;99.90;;;;;;4996363;28;20456;-70
2024/02/27 09:28:56;;;;;;;68.40;61.73;;;8.60;99.90;;;;;;5013147;28;20453;-70
2024/02/27 09:31:24;;;;;;;51.93;43.37;;;9.00;99.90;;;;;;5009907;28;20453;-70
2024/02/27 09:33:51;;;;;;;46.87;38.37;;;9.40;99.90;;;;;;5006374;28;20483;-70
2024/02/27 09:36:18;;;;;;;52.90;32.93;;;9.40;99.90;;;;;;5003746;28;20457;-70
2024/02/27 09:38:45;;;;;;;42.47;30.47;;;9.80;99.90;;;;;;5012496;28;20453;-70
2024/02/27 09:41:22;;;;;;;46.60;31.27;;;9.90;99.90;;;;;;5012133;28;20468;-69
2024/02/27 09:43:54;;;;;;;39.80;26.70;;;10.10;99.90;;;;;;5015882;28;21066;-70
2024/02/27 09:46:23;;;;;;;46.35;33.38;;;10.00;97.60;;;;;;5012544;28;20458;-70
2024/02/27 09:48:52;;;;;;;43.77;31.00;;;10.30;99.90;;;;;;5013564;28;20669;-70
2024/02/27 09:51:23;;;;;;;42.90;30.77;;;10.90;98.00;;;;;;5014952;28;20453;-71
2024/02/27 09:53:50;;;;;;;36.00;25.20;;;11.20;98.10;;;;;;4998967;28;20487;-71
2024/02/27 09:56:17;;;;;;;32.80;23.60;;;11.20;94.80;;;;;;5012928;28;20539;-70
2024/02/27 09:58:44;;;;;;;33.77;23.97;;;10.90;94.70;;;;;;5012389;28;20476;-72
2024/02/27 10:01:13;;;;;;;30.73;20.50;;;10.50;97.60;;;;;;4995244;28;20480;-72
2024/02/27 10:03:43;;;;;;;38.10;26.03;;;10.20;94.60;;;;;;4992611;28;20496;-71
2024/02/27 10:06:14;;;;;;;37.57;24.67;;;10.40;97.70;;;;;;5011179;28;20945;-70
2024/02/27 10:08:47;;;;;;;30.60;19.93;;;10.10;97.70;;;;;;5010095;28;20476;-68
2024/02/27 10:11:14;;;;;;;36.60;21.43;;;9.90;98.00;;;;;;5015408;28;20468;-68
2024/02/27 10:13:42;;;;;;;38.10;22.33;;;9.50;97.90;;;;;;5012102;28;20474;-68
2024/02/27 10:16:09;;;;;;;37.00;24.07;;;9.20;97.70;;;;;;4993546;28;20460;-68
2024/02/27 10:18:36;;;;;;;76.60;41.77;;;9.10;99.30;;;;;;4993084;28;20454;-69
2024/02/27 10:21:04;;;;;;;32.83;20.50;;;9.00;99.90;;;;;;4992176;28;20457;-69
2024/02/27 10:23:32;;;;;;;38.10;25.20;;;9.00;99.90;;;;;;4991894;28;20771;-69
2024/02/27 10:26:08;;;;;;;38.60;25.13;;;8.90;99.90;;;;;;5001391;28;20457;-72
2024/02/27 10:28:35;;;;;;;33.47;22.57;;;9.00;99.90;;;;;;5004236;28;20654;-72
2024/02/27 10:31:08;;;;;;;33.03;21.27;;;9.30;97.80;;;;;;5010876;28;20827;-73
2024/02/27 10:33:36;;;;;;;36.60;24.47;;;9.80;98.00;;;;;;5000201;28;20470;-73
2024/02/27 10:36:03;;;;;;;42.80;28.57;;;9.80;98.30;;;;;;4992862;28;20458;-73
2024/02/27 10:38:32;;;;;;;31.63;18.37;;;9.90;98.80;;;;;;5011727;28;20465;-71
2024/02/27 10:41:00;;;;;;;29.30;17.50;;;9.70;97.90;;;;;;5011826;28;20548;-72
2024/02/27 10:43:26;;;;;;;40.80;28.03;;;9.70;99.90;;;;;;5002527;28;20521;-73
2024/02/27 10:45:55;;;;;;;39.57;23.00;;;10.00;97.60;;;;;;4997335;28;20454;-69
2024/02/27 10:48:23;;;;;;;28.03;16.37;;;10.00;97.60;;;;;;4998582;28;20465;-71
2024/02/27 10:50:49;;;;;;;34.47;23.23;;;10.10;97.60;;;;;;5018605;28;20461;-69
2024/02/27 10:53:19;;;;;;;35.10;22.97;;;10.20;94.40;;;;;;5019459;28;20468;-69
2024/02/27 10:55:48;;;;;;;40.60;23.50;;;10.10;97.60;;;;;;5017976;28;20452;-69
2024/02/27 10:58:15;;;;;;;30.60;18.80;;;9.70;97.90;;;;;;5020524;28;20456;-69
2024/02/27 11:00:42;;;;;;;32.80;20.27;;;9.40;97.80;;;;;;5015435;28;20457;-71
2024/02/27 11:03:13;;;;;;;37.50;23.27;;;9.30;97.80;;;;;;4999137;28;21015;-70
2024/02/27 11:05:45;;;;;;;29.03;18.27;;;9.20;97.70;;;;;;4996853;28;20544;-70
2024/02/27 11:08:13;;;;;;;23.50;15.23;;;9.30;97.80;;;;;;5014843;28;20456;-71
2024/02/27 11:10:40;;;;;;;26.73;17.00;;;9.10;97.70;;;;;;5010871;28;20845;-71
2024/02/27 11:13:08;;;;;;;28.20;17.37;;;9.40;97.80;;;;;;5017455;28;20471;-71
2024/02/27 11:15:38;;;;;;;48.20;26.90;;;10.10;97.60;;;;;;5008559;28;20828;-71
2024/02/27 11:18:08;;;;;;;33.23;21.23;;;10.60;95.00;;;;;;5017081;28;20444;-71
2024/02/27 11:20:36;;;;;;;34.00;20.40;;;10.30;92.80;;;;;;5011180;28;20491;-71
2024/02/27 11:23:04;;;;;;;33.47;21.03;;;10.30;91.90;;;;;;5016146;28;20499;-72
2024/02/27 11:25:32;;;;;;;40.83;26.67;;;9.90;94.80;;;;;;5016924;28;20835;-71
2024/02/27 11:28:00;;;;;;;21.77;13.73;;;9.80;94.70;;;;;;5017621;28;20475;-71
2024/02/27 11:30:30;;;;;;;36.57;25.70;;;9.40;95.20;;;;;;5017710;28;20457;-71
2024/02/27 11:32:57;;;;;;;31.57;21.27;;;9.80;97.80;;;;;;5015025;28;20468;-71
2024/02/27 11:35:27;;;;;;;34.87;22.30;;;10.60;93.40;;;;;;5014839;28;20881;-71
2024/02/27 11:37:54;;;;;;;36.53;24.27;;;10.80;91.30;;;;;;5011501;28;20464;-72
2024/02/27 11:40:44;;;;;;;33.77;20.27;;;11.10;91.40;;;;;;5018552;28;20527;-70
2024/02/27 11:43:12;;;;;;;33.87;23.07;;;11.40;90.70;;;;;;5019555;28;20482;-67
2024/02/27 11:45:41;;;;;;;35.13;25.77;;;11.10;91.40;;;;;;5020604;28;20475;-71
2024/02/27 11:48:08;;;;;;;87.30;51.20;;;11.00;85.60;;;;;;5017966;28;20449;-71
2024/02/27 11:50:47;;;;;;;61.90;45.00;;;11.00;91.40;;;;;;5006903;28;20456;-69
2024/02/27 11:53:37;;;;;;;42.17;26.27;;;11.00;91.40;;;;;;5013124;28;20853;-70
2024/02/27 11:56:04;;;;;;;77.87;55.30;;;10.70;91.20;;;;;;5009236;28;20519;-70
2024/02/27 11:58:31;;;;;;;36.97;25.20;;;10.00;91.00;;;;;;5015590;28;20480;-68
2024/02/27 12:01:00;;;;;;;46.03;39.35;;;9.80;92.20;;;;;;5007543;28;20514;-71
2024/02/27 12:03:27;;;;;;;30.53;20.93;;;9.70;91.30;;;;;;4993726;28;20273;-68
2024/02/27 12:06:03;;;;;;;38.13;27.03;;;9.90;94.70;;;;;;5003031;28;20461;-67
2024/02/27 12:08:31;;;;;;;43.13;31.50;;;9.70;94.60;;;;;;5006250;28;20453;-67
2024/02/27 12:10:58;;;;;;;40.80;23.83;;;9.40;94.50;;;;;;5004847;28;20464;-67
2024/02/27 12:13:25;;;;;;;40.93;24.77;;;9.40;97.70;;;;;;5000118;28;20503;-70
2024/02/27 12:15:56;;;;;;;34.70;21.27;;;9.60;97.90;;;;;;4998176;28;20458;-68
2024/02/27 12:18:25;;;;;;;30.20;19.90;;;9.30;97.80;;;;;;5016450;28;20874;-69
2024/02/27 12:20:52;;;;;;;38.67;25.33;;;8.90;97.60;;;;;;5002996;28;20461;-68
2024/02/27 12:23:19;;;;;;;28.63;19.47;;;8.80;97.60;;;;;;5020105;28;20549;-69